createdAt,value
2022-10-07T00:00:01.796Z,99943.88
2022-10-07T00:02:28.959Z,99946.63
2022-10-07T00:04:56.063Z,99938.41
2022-10-07T00:07:23.110Z,99937.56
2022-10-07T00:09:50.081Z,99936.91
2022-10-07T00:12:17.194Z,99938.78
2022-10-07T00:14:44.206Z,99942.81
2022-10-07T00:17:11.216Z,99931.47
2022-10-07T00:19:38.227Z,99928.72
2022-10-07T00:22:05.262Z,99934.41
2022-10-07T00:24:32.288Z,99938.84
2022-10-07T00:26:59.296Z,99930.84
2022-10-07T00:29:26.289Z,99933.78
2022-10-07T00:31:57.243Z,99918.66
2022-10-07T00:34:24.465Z,99923.28
2022-10-07T00:36:51.668Z,99925.63
2022-10-07T00:39:18.877Z,99926.91
2022-10-07T00:41:50.499Z,99924.97
2022-10-07T00:44:32.490Z,99917.84
2022-10-07T00:47:00.180Z,99916.56
2022-10-07T00:49:29.818Z,99919.50
2022-10-07T00:51:57.482Z,99914.88
2022-10-07T00:54:24.381Z,99914.03
2022-10-07T00:56:51.400Z,99902.25
2022-10-07T00:59:18.496Z,99911.53
2022-10-07T01:01:45.450Z,99898.06
2022-10-07T01:04:12.850Z,99905.66
2022-10-07T01:06:39.825Z,99895.97
2022-10-07T01:09:28.301Z,99895.13
2022-10-07T01:12:17.545Z,99890.94
2022-10-07T01:15:25.316Z,99885.06
2022-10-07T01:18:24.448Z,99889.06
2022-10-07T01:21:34.899Z,99886.53
2022-10-07T01:24:48.911Z,99881.31
2022-10-07T01:27:17.059Z,99873.75
2022-10-07T01:29:56.249Z,99871.41
2022-10-07T01:32:39.581Z,99870.38
2022-10-07T01:35:13.777Z,99868.69
2022-10-07T01:37:43.709Z,99877.53
2022-10-07T01:40:14.180Z,99872.69
2022-10-07T01:42:41.080Z,99872.44
2022-10-07T01:45:09.535Z,99874.13
2022-10-07T01:47:36.575Z,99871.59
2022-10-07T01:50:11.335Z,99865.53
2022-10-07T01:53:01.729Z,99860.47
2022-10-07T01:55:40.776Z,99860.91
2022-10-07T01:58:41.394Z,99858.38
2022-10-07T02:01:26.781Z,99867.91
2022-10-07T02:04:15.101Z,99859.03
2022-10-07T02:07:14.170Z,99861.19
2022-10-07T02:10:05.739Z,99859.50
2022-10-07T02:12:50.701Z,99850.69
2022-10-07T02:15:21.875Z,99854.47
2022-10-07T02:17:59.200Z,99847.75
2022-10-07T02:20:28.670Z,99853.81
2022-10-07T02:22:56.611Z,99854.91
2022-10-07T02:25:23.710Z,99842.28
2022-10-07T02:27:52.071Z,99850.03
2022-10-07T02:30:19.733Z,99847.31
2022-10-07T02:32:53.523Z,99847.31
2022-10-07T02:35:33.377Z,99849.00
2022-10-07T02:38:01.842Z,99847.31
2022-10-07T02:40:34.941Z,99843.31
2022-10-07T02:43:12.272Z,99843.53
2022-10-07T02:46:01.907Z,99844.81
2022-10-07T02:48:32.556Z,99836.63
2022-10-07T02:51:01.150Z,99839.34
2022-10-07T02:53:28.628Z,99840.84
2022-10-07T02:55:55.591Z,99840.84
2022-10-07T02:58:25.751Z,99842.75
2022-10-07T03:00:55.853Z,99829.25
2022-10-07T03:03:23.437Z,99834.75
2022-10-07T03:05:50.571Z,99835.19
2022-10-07T03:08:17.539Z,99837.28
2022-10-07T03:10:44.443Z,99829.31
2022-10-07T03:13:11.435Z,99832.25
2022-10-07T03:15:42.364Z,99832.25
2022-10-07T03:18:26.777Z,99832.25
2022-10-07T03:20:55.634Z,99828.69
2022-10-07T03:23:25.590Z,99832.25
2022-10-07T03:25:53.749Z,99820.25
2022-10-07T03:28:21.454Z,99821.53
2022-10-07T03:30:49.163Z,99819.03
2022-10-07T03:33:16.715Z,99826.38
2022-10-07T03:35:43.765Z,99826.59
2022-10-07T03:38:10.959Z,99814.81
2022-10-07T03:40:38.506Z,99809.56
2022-10-07T03:43:06.061Z,99812.50
2022-10-07T03:45:33.048Z,99814.41
2022-10-07T03:48:00.088Z,99806.63
2022-10-07T03:50:27.158Z,99805.53
2022-10-07T03:52:54.101Z,99810.41
2022-10-07T03:55:20.998Z,99807.03
2022-10-07T03:57:52.557Z,99793.78
2022-10-07T04:00:23.515Z,99798.22
2022-10-07T04:02:50.620Z,99794.63
2022-10-07T04:05:18.141Z,99792.75
2022-10-07T04:07:46.195Z,99796.09
2022-10-07T04:10:15.469Z,99793.34
2022-10-07T04:12:42.794Z,99786.00
2022-10-07T04:15:13.977Z,99784.53
2022-10-07T04:17:41.715Z,99784.53
2022-10-07T04:20:09.218Z,99782.41
2022-10-07T04:22:36.858Z,99786.00
2022-10-07T04:25:23.519Z,99775.91
2022-10-07T04:27:56.942Z,99779.69
2022-10-07T04:30:24.950Z,99778.03
2022-10-07T04:32:51.949Z,99780.13
2022-10-07T04:35:19.765Z,99775.69
2022-10-07T04:37:50.219Z,99782.22
2022-10-07T04:40:17.414Z,99777.19
2022-10-07T04:43:02.700Z,99766.69
2022-10-07T04:45:29.650Z,99771.53
2022-10-07T04:47:56.649Z,99765.22
2022-10-07T04:50:23.564Z,99766.31
2022-10-07T04:52:50.497Z,99770.94
2022-10-07T04:55:17.450Z,99763.31
2022-10-07T04:57:44.636Z,99757.00
2022-10-07T05:00:11.824Z,99752.41
2022-10-07T05:02:38.821Z,99752.63
2022-10-07T05:05:06.187Z,99761.03
2022-10-07T05:07:33.122Z,99757.66
2022-10-07T05:10:00.012Z,99752.44
2022-10-07T05:12:27.713Z,99758.94
2022-10-07T05:14:54.646Z,99756.22
2022-10-07T05:17:21.876Z,99760.00
2022-10-07T05:19:48.917Z,99758.09
2022-10-07T05:22:15.873Z,99756.44
2022-10-07T05:24:42.810Z,99757.50
2022-10-07T05:27:09.819Z,99756.66
2022-10-07T05:29:36.880Z,99748.66
2022-10-07T05:32:05.219Z,99743.19
2022-10-07T05:34:32.347Z,99747.22
2022-10-07T05:36:59.677Z,99747.41
2022-10-07T05:39:26.595Z,99739.81
2022-10-07T05:41:53.520Z,99751.59
2022-10-07T05:44:20.502Z,99745.94
2022-10-07T05:46:47.451Z,99752.03
2022-10-07T05:49:14.382Z,99747.38
2022-10-07T05:51:41.539Z,99743.00
2022-10-07T05:54:08.766Z,99746.34
2022-10-07T05:56:38.258Z,99745.06
2022-10-07T05:59:05.207Z,99744.00
2022-10-07T06:01:32.224Z,99740.66
2022-10-07T06:03:59.183Z,99746.34
2022-10-07T06:06:26.277Z,99745.72
2022-10-07T06:08:53.458Z,99748.66
2022-10-07T06:11:39.298Z,99752.44
2022-10-07T06:14:06.393Z,99748.88
2022-10-07T06:16:33.497Z,99741.75
2022-10-07T06:19:00.516Z,99744.47
2022-10-07T06:21:28.386Z,99740.91
2022-10-07T06:23:56.329Z,99740.06
2022-10-07T06:26:23.354Z,99734.81
2022-10-07T06:28:50.580Z,99727.44
2022-10-07T06:31:22.689Z,99733.75
2022-10-07T06:33:50.435Z,99729.72
2022-10-07T06:36:17.569Z,99732.25
2022-10-07T06:38:45.916Z,99735.84
2022-10-07T06:41:12.912Z,99736.44
2022-10-07T06:43:39.856Z,99737.28
2022-10-07T06:46:07.506Z,99736.44
2022-10-07T06:48:34.999Z,99736.44
2022-10-07T06:51:06.250Z,99732.66
2022-10-07T06:53:33.466Z,99730.78
2022-10-07T06:56:03.708Z,99723.41
2022-10-07T06:58:30.810Z,99725.94
2022-10-07T07:00:58.704Z,99720.47
2022-10-07T07:03:25.856Z,99723.81
2022-10-07T07:05:54.635Z,99718.97
2022-10-07T07:08:23.395Z,99713.72
2022-10-07T07:10:50.347Z,99716.00
2022-10-07T07:13:18.262Z,99718.53
2022-10-07T07:15:57.553Z,99717.94
2022-10-07T07:18:24.809Z,99714.34
2022-10-07T07:20:52.030Z,99717.69
2022-10-07T07:23:19.371Z,99714.50
2022-10-07T07:25:46.542Z,99716.84
2022-10-07T07:28:16.426Z,99709.47
2022-10-07T07:30:43.426Z,99714.50
2022-10-07T07:33:10.395Z,99716.56
2022-10-07T07:35:41.634Z,99715.28
2022-10-07T07:38:08.912Z,99715.94
2022-10-07T07:40:39.221Z,99717.63
2022-10-07T07:43:06.730Z,99708.13
2022-10-07T07:45:36.968Z,99705.19
2022-10-07T07:48:04.268Z,99707.72
2022-10-07T07:50:31.226Z,99709.38
2022-10-07T07:53:00.335Z,99699.06
2022-10-07T07:55:27.336Z,99703.25
2022-10-07T07:57:54.290Z,99693.97
2022-10-07T08:00:21.322Z,99689.34
2022-10-07T08:02:48.957Z,99689.13
2022-10-07T08:05:18.019Z,99681.53
2022-10-07T08:07:48.616Z,99683.22
2022-10-07T08:10:15.839Z,99684.91
2022-10-07T08:12:42.777Z,99681.94
2022-10-07T08:15:11.016Z,99668.03
2022-10-07T08:17:37.940Z,99682.34
2022-10-07T08:20:05.130Z,99670.31
2022-10-07T08:22:32.091Z,99663.78
2022-10-07T08:25:00.438Z,99665.47
2022-10-07T08:27:28.430Z,99662.53
2022-10-07T08:29:55.445Z,99656.22
2022-10-07T08:32:22.386Z,99663.38
2022-10-07T08:34:49.330Z,99663.38
2022-10-07T08:37:16.330Z,99653.22
2022-10-07T08:39:43.289Z,99654.06
2022-10-07T08:42:15.416Z,99651.34
2022-10-07T08:44:43.731Z,99642.91
2022-10-07T08:47:49.144Z,99641.03
2022-10-07T08:50:39.763Z,99639.97
2022-10-07T08:53:08.724Z,99634.50
2022-10-07T08:55:55.899Z,99639.97
2022-10-07T08:58:41.102Z,99638.88
2022-10-07T09:01:29.523Z,99629.63
2022-10-07T09:04:19.454Z,99635.09
2022-10-07T09:06:52.727Z,99630.47
2022-10-07T09:09:22.579Z,99625.84
2022-10-07T09:11:49.658Z,99620.34
2022-10-07T09:14:31.223Z,99625.63
2022-10-07T09:17:02.873Z,99618.22
2022-10-07T09:19:45.493Z,99611.09
2022-10-07T09:22:32.028Z,99625.38
2022-10-07T09:25:18.019Z,99616.94
2022-10-07T09:27:45.150Z,99614.44
2022-10-07T09:30:15.481Z,99617.78
2022-10-07T09:32:54.539Z,99610.63
2022-10-07T09:35:27.197Z,99606.84
2022-10-07T09:38:09.671Z,99599.69
2022-10-07T09:40:58.007Z,99596.75
2022-10-07T09:43:25.165Z,99595.91
2022-10-07T09:45:52.147Z,99594.00
2022-10-07T09:48:33.435Z,99585.78
2022-10-07T09:51:16.893Z,99589.38
2022-10-07T09:54:19.694Z,99593.75
2022-10-07T09:56:47.081Z,99589.13
2022-10-07T09:59:17.794Z,99584.50
2022-10-07T10:01:50.813Z,99581.75
2022-10-07T10:04:19.380Z,99576.28
2022-10-07T10:06:50.055Z,99572.69
2022-10-07T10:09:22.840Z,99575.22
2022-10-07T10:12:00.966Z,99571.44
2022-10-07T10:14:36.894Z,99565.97
2022-10-07T10:17:04.700Z,99564.06
2022-10-07T10:19:36.446Z,99558.59
2022-10-07T10:22:04.373Z,99560.22
2022-10-07T10:24:49.829Z,99561.06
2022-10-07T10:27:21.177Z,99552.88
2022-10-07T10:29:57.222Z,99541.91
2022-10-07T10:32:44.094Z,99548.00
2022-10-07T10:35:14.243Z,99539.81
2022-10-07T10:37:41.078Z,99536.00
2022-10-07T10:40:34.916Z,99529.44
2022-10-07T10:43:07.451Z,99538.50
2022-10-07T10:46:16.178Z,99525.06
2022-10-07T10:48:44.946Z,99515.75
2022-10-07T10:51:32.261Z,99511.97
2022-10-07T10:54:22.394Z,99511.75
2022-10-07T10:56:54.337Z,99509.00
2022-10-07T10:59:43.261Z,99503.53
2022-10-07T11:02:29.736Z,99496.38
2022-10-07T11:05:04.604Z,99486.50
2022-10-07T11:07:39.633Z,99490.91
2022-10-07T11:10:28.333Z,99489.00
2022-10-07T11:12:59.596Z,99476.16
2022-10-07T11:15:37.455Z,99473.44
2022-10-07T11:18:11.354Z,99461.41
2022-10-07T11:20:44.410Z,99467.69
2022-10-07T11:23:27.184Z,99448.53
2022-10-07T11:26:18.870Z,99454.63
2022-10-07T11:28:45.984Z,99449.16
2022-10-07T11:31:40.454Z,99440.94
2022-10-07T11:34:12.679Z,99438.00
2022-10-07T11:36:40.232Z,99436.09
2022-10-07T11:39:08.739Z,99427.88
2022-10-07T11:41:42.248Z,99421.31
2022-10-07T11:44:14.300Z,99424.69
2022-10-07T11:46:41.596Z,99415.41
2022-10-07T11:49:11.541Z,99408.84
2022-10-07T11:51:41.281Z,99406.94
2022-10-07T11:54:09.767Z,99399.56
2022-10-07T11:56:49.549Z,99393.03
2022-10-07T11:59:42.904Z,99401.03
2022-10-07T12:02:28.473Z,99389.22
2022-10-07T12:04:56.174Z,99390.66
2022-10-07T12:07:35.203Z,99386.03
2022-10-07T12:10:05.247Z,99379.50
2022-10-07T12:12:47.815Z,99391.28
2022-10-07T12:15:27.307Z,99383.66
2022-10-07T12:18:17.447Z,99372.47
2022-10-07T12:20:58.867Z,99373.06
2022-10-07T12:23:26.208Z,99369.25
2022-10-07T12:26:03.512Z,99364.41
2022-10-07T12:28:42.635Z,99365.81
2022-10-07T12:31:15.422Z,99362.03
2022-10-07T12:33:57.726Z,99357.97
2022-10-07T12:36:28.309Z,99359.44
2022-10-07T12:38:58.652Z,99356.47
2022-10-07T12:41:42.883Z,99352.44
2022-10-07T12:44:33.690Z,99353.88
2022-10-07T12:47:13.766Z,99339.09
2022-10-07T12:49:50.390Z,99343.03
2022-10-07T12:52:20.257Z,99338.41
2022-10-07T12:54:52.153Z,99329.75
2022-10-07T12:57:21.219Z,99328.41
2022-10-07T13:00:03.269Z,99323.56
2022-10-07T13:02:40.295Z,99312.13
2022-10-07T13:05:31.647Z,99318.16
2022-10-07T13:08:20.076Z,99307.59
2022-10-07T13:10:56.407Z,99307.13
2022-10-07T13:13:31.128Z,99304.72
2022-10-07T13:16:22.618Z,99296.88
2022-10-07T13:19:18.756Z,99297.25
2022-10-07T13:22:13.919Z,99292.13
2022-10-07T13:24:42.331Z,99289.72
2022-10-07T13:27:09.892Z,99282.91
2022-10-07T13:29:36.839Z,99275.53
2022-10-07T13:32:17.425Z,99276.72
2022-10-07T13:34:46.542Z,99278.16
2022-10-07T13:37:42.208Z,99266.13
2022-10-07T13:40:25.978Z,99267.56
2022-10-07T13:42:57.452Z,99258.03
2022-10-07T13:45:24.414Z,99252.53
2022-10-07T13:47:51.432Z,99247.63
2022-10-07T13:50:22.940Z,99241.94
2022-10-07T13:52:49.836Z,99227.94
2022-10-07T13:55:33.783Z,99236.78
2022-10-07T13:58:03.242Z,99229.97
2022-10-07T14:00:30.683Z,99226.16
2022-10-07T14:02:57.688Z,99221.28
2022-10-07T14:05:27.952Z,99221.03
2022-10-07T14:07:58.435Z,99216.16
2022-10-07T14:10:29.429Z,99205.75
2022-10-07T14:13:00.711Z,99209.09
2022-10-07T14:15:29.452Z,99209.69
2022-10-07T14:17:58.760Z,99202.88
2022-10-07T14:20:26.866Z,99191.91
2022-10-07T14:22:55.260Z,99192.50
2022-10-07T14:25:53.443Z,99183.19
2022-10-07T14:28:28.473Z,99181.06
2022-10-07T14:31:43.453Z,99177.25
2022-10-07T14:34:36.453Z,99181.66
2022-10-07T14:37:13.984Z,99167.94
2022-10-07T14:39:45.396Z,99170.44
2022-10-07T14:42:14.573Z,99168.53
2022-10-07T14:44:44.411Z,99165.78
2022-10-07T14:47:21.365Z,99161.38
2022-10-07T14:49:48.890Z,99160.31
2022-10-07T14:52:21.520Z,99163.06
2022-10-07T14:54:49.087Z,99156.50
2022-10-07T14:57:15.993Z,99154.00
2022-10-07T14:59:42.898Z,99152.09
2022-10-07T15:02:12.675Z,99142.78
2022-10-07T15:04:40.462Z,99143.34
2022-10-07T15:07:07.496Z,99147.53
2022-10-07T15:09:34.457Z,99142.88
2022-10-07T15:12:01.370Z,99142.63
2022-10-07T15:14:28.500Z,99138.56
2022-10-07T15:16:55.543Z,99144.88
2022-10-07T15:19:23.069Z,99148.19
2022-10-07T15:21:50.012Z,99135.31
2022-10-07T15:24:17.063Z,99130.66
2022-10-07T15:26:44.113Z,99138.91
2022-10-07T15:29:13.553Z,99131.75
2022-10-07T15:31:40.573Z,99129.84
2022-10-07T15:34:07.944Z,99127.09
2022-10-07T15:36:34.978Z,99134.47
2022-10-07T15:39:02.382Z,99132.81
2022-10-07T15:41:36.262Z,99129.00
2022-10-07T15:44:06.206Z,99133.66
2022-10-07T15:46:33.695Z,99132.00
2022-10-07T15:49:00.774Z,99133.06
2022-10-07T15:51:27.884Z,99125.69
2022-10-07T15:53:54.921Z,99119.59
2022-10-07T15:56:21.992Z,99123.19
2022-10-07T15:58:48.975Z,99117.09
2022-10-07T16:01:16.022Z,99120.09
2022-10-07T16:03:44.760Z,99114.63
2022-10-07T16:06:16.419Z,99119.03
2022-10-07T16:08:43.710Z,99115.44
2022-10-07T16:11:11.506Z,99117.09
2022-10-07T16:13:39.519Z,99117.94
2022-10-07T16:16:08.941Z,99109.97
2022-10-07T16:18:37.386Z,99122.56
2022-10-07T16:21:23.058Z,99120.94
2022-10-07T16:23:51.380Z,99116.53
2022-10-07T16:26:20.981Z,99109.97
2022-10-07T16:29:08.157Z,99111.03
2022-10-07T16:31:36.694Z,99103.88
2022-10-07T16:34:03.900Z,99100.28
2022-10-07T16:36:30.982Z,99104.94
2022-10-07T16:38:59.977Z,99104.13
2022-10-07T16:41:26.914Z,99099.72
2022-10-07T16:43:53.874Z,99096.16
2022-10-07T16:46:21.142Z,99096.16
2022-10-07T16:48:49.020Z,99099.97
2022-10-07T16:51:23.412Z,99096.38
2022-10-07T16:53:53.413Z,99085.41
2022-10-07T16:56:20.806Z,99085.41
2022-10-07T16:58:47.931Z,99084.56
2022-10-07T17:01:16.337Z,99097.22
2022-10-07T17:03:46.448Z,99089.00
2022-10-07T17:06:18.251Z,99085.19
2022-10-07T17:08:48.342Z,99080.75
2022-10-07T17:11:31.483Z,99073.03
2022-10-07T17:14:05.644Z,99086.13
2022-10-07T17:16:38.052Z,99068.50
2022-10-07T17:19:06.604Z,99081.38
2022-10-07T17:21:36.937Z,99065.75
2022-10-07T17:24:04.672Z,99077.78
2022-10-07T17:26:31.649Z,99069.00
2022-10-07T17:29:03.580Z,99065.16
2022-10-07T17:31:30.949Z,99075.31
2022-10-07T17:33:58.567Z,99066.25
2022-10-07T17:36:26.101Z,99067.09
2022-10-07T17:38:53.274Z,99065.25
2022-10-07T17:41:25.115Z,99058.81
2022-10-07T17:43:53.086Z,99066.31
2022-10-07T17:46:20.972Z,99065.81
2022-10-07T17:48:49.058Z,99062.81
2022-10-07T17:51:16.715Z,99056.25
2022-10-07T17:53:43.969Z,99052.91
2022-10-07T17:56:12.944Z,99063.66
2022-10-07T17:58:41.014Z,99047.44
2022-10-07T18:01:10.026Z,99052.09
2022-10-07T18:03:40.576Z,99053.19
2022-10-07T18:06:08.181Z,99043.28
2022-10-07T18:08:35.771Z,99035.91
2022-10-07T18:11:03.187Z,99040.78
2022-10-07T18:13:51.993Z,99034.47
2022-10-07T18:16:20.091Z,99037.47
2022-10-07T18:18:47.859Z,99032.22
2022-10-07T18:21:14.933Z,99027.81
2022-10-07T18:23:42.558Z,99033.31
2022-10-07T18:26:10.715Z,99032.47
2022-10-07T18:28:57.831Z,99028.06
2022-10-07T18:31:24.871Z,99029.16
2022-10-07T18:33:51.892Z,99027.50
2022-10-07T18:36:19.612Z,99032.09
2022-10-07T18:38:46.745Z,99024.94
2022-10-07T18:41:15.102Z,99026.84
2022-10-07T18:43:42.664Z,99026.03
2022-10-07T18:46:11.670Z,99017.00
2022-10-07T18:48:39.872Z,99021.66
2022-10-07T18:51:07.189Z,99017.47
2022-10-07T18:53:37.761Z,99020.47
2022-10-07T18:56:06.645Z,99009.50
2022-10-07T18:58:38.097Z,99009.50
2022-10-07T19:01:12.190Z,99012.50
2022-10-07T19:03:39.380Z,99007.00
2022-10-07T19:06:07.452Z,99010.81
2022-10-07T19:08:34.501Z,99010.81
2022-10-07T19:11:05.831Z,99014.63
2022-10-07T19:13:48.618Z,99011.06
2022-10-07T19:16:19.685Z,99007.25
2022-10-07T19:18:47.764Z,99010.25
2022-10-07T19:21:15.515Z,99006.66
2022-10-07T19:23:42.533Z,99011.31
2022-10-07T19:26:09.669Z,99004.16
2022-10-07T19:28:37.515Z,99004.16
2022-10-07T19:31:18.259Z,99002.50
2022-10-07T19:33:46.329Z,99009.09
2022-10-07T19:36:14.087Z,99000.03
2022-10-07T19:38:45.011Z,99002.75
2022-10-07T19:41:15.572Z,99001.34
2022-10-07T19:43:43.106Z,99004.66
2022-10-07T19:46:10.303Z,98999.44
2022-10-07T19:48:37.539Z,99002.41
2022-10-07T19:51:06.343Z,98998.84
2022-10-07T19:53:34.272Z,99000.25
2022-10-07T19:56:02.441Z,98999.66
2022-10-07T19:58:31.866Z,98994.19
2022-10-07T20:01:09.479Z,98992.53
2022-10-07T20:03:37.304Z,98998.03
2022-10-07T20:06:11.506Z,98991.44
2022-10-07T20:08:39.912Z,98992.53
2022-10-07T20:11:07.040Z,98995.28
2022-10-07T20:13:35.182Z,98991.94
2022-10-07T20:16:16.474Z,98992.53
2022-10-07T20:18:44.280Z,98994.69
2022-10-07T20:21:16.276Z,98991.09
2022-10-07T20:23:45.112Z,98989.19
2022-10-07T20:26:16.270Z,98989.44
2022-10-07T20:28:43.299Z,98987.78
2022-10-07T20:31:11.594Z,98984.22
2022-10-07T20:33:45.787Z,98981.94
2022-10-07T20:36:14.207Z,98983.06
2022-10-07T20:38:59.814Z,98982.22
2022-10-07T20:41:45.253Z,98978.88
2022-10-07T20:44:12.888Z,98978.31
2022-10-07T20:46:40.198Z,98978.56
2022-10-07T20:49:25.091Z,98978.31
2022-10-07T20:51:53.611Z,98971.72
2022-10-07T20:54:21.678Z,98974.72
2022-10-07T20:56:49.177Z,98978.31
2022-10-07T20:59:16.135Z,98980.22
2022-10-07T21:01:43.234Z,98975.22
2022-10-07T21:04:11.526Z,98977.38
2022-10-07T21:06:39.810Z,98974.63
2022-10-07T21:09:07.042Z,98971.31
2022-10-07T21:11:34.041Z,98972.41
2022-10-07T21:14:00.983Z,98971.56
2022-10-07T21:16:29.483Z,98968.22
2022-10-07T21:18:57.041Z,98972.88
2022-10-07T21:21:24.511Z,98966.00
2022-10-07T21:23:51.826Z,98966.22
2022-10-07T21:26:19.010Z,98964.31
2022-10-07T21:28:48.545Z,98971.69
2022-10-07T21:31:17.664Z,98976.34
2022-10-07T21:33:50.864Z,98970.03
2022-10-07T21:36:22.304Z,98972.78
2022-10-07T21:38:59.233Z,98975.50
2022-10-07T21:41:34.631Z,98969.19
2022-10-07T21:44:03.013Z,98968.41
2022-10-07T21:46:30.994Z,98968.63
2022-10-07T21:48:58.210Z,98964.22
2022-10-07T21:51:27.279Z,98961.72
2022-10-07T21:53:54.830Z,98952.69
2022-10-07T21:56:21.902Z,98955.66
2022-10-07T21:58:53.416Z,98958.41
2022-10-07T22:01:22.333Z,98950.41
2022-10-07T22:03:53.696Z,98951.25
2022-10-07T22:06:20.733Z,98947.94
2022-10-07T22:08:47.611Z,98943.31
2022-10-07T22:11:18.701Z,98946.28
2022-10-07T22:13:55.318Z,98937.00
2022-10-07T22:16:22.868Z,98938.06
2022-10-07T22:18:52.015Z,98941.63
2022-10-07T22:21:23.935Z,98934.47
2022-10-07T22:23:52.653Z,98934.47
2022-10-07T22:26:21.341Z,98932.56
2022-10-07T22:28:48.302Z,98928.16
2022-10-07T22:31:15.836Z,98926.50
2022-10-07T22:33:43.450Z,98925.94
2022-10-07T22:36:11.991Z,98923.19
2022-10-07T22:38:41.162Z,98928.66
2022-10-07T22:41:12.596Z,98931.66
2022-10-07T22:43:39.809Z,98926.16
2022-10-07T22:46:06.948Z,98922.84
2022-10-07T22:48:34.380Z,98922.84
2022-10-07T22:51:08.757Z,98925.84
2022-10-07T22:53:36.382Z,98918.44
2022-10-07T22:56:08.045Z,98918.69
2022-10-07T22:58:35.027Z,98915.13
2022-10-07T23:01:05.728Z,98917.00
2022-10-07T23:03:33.012Z,98918.13
2022-10-07T23:06:00.442Z,98915.13
2022-10-07T23:08:27.472Z,98914.28
2022-10-07T23:10:57.996Z,98912.63
2022-10-07T23:13:27.990Z,98920.84
2022-10-07T23:16:04.683Z,98906.56
2022-10-07T23:18:32.348Z,98904.66
2022-10-07T23:20:59.979Z,98901.09
2022-10-07T23:23:27.473Z,98911.19
2022-10-07T23:25:54.459Z,98897.75
2022-10-07T23:28:22.293Z,98900.47
2022-10-07T23:30:49.497Z,98896.94
2022-10-07T23:33:16.895Z,98897.19
2022-10-07T23:35:43.872Z,98903.72
2022-10-07T23:38:10.835Z,98896.56
2022-10-07T23:40:37.795Z,98891.09
2022-10-07T23:43:04.722Z,98894.09
2022-10-07T23:45:33.406Z,98899.81
2022-10-07T23:48:00.544Z,98886.13
2022-10-07T23:50:28.060Z,98886.97
2022-10-07T23:52:55.125Z,98880.63
2022-10-07T23:55:22.120Z,98888.63
2022-10-07T23:57:49.395Z,98886.13
